APL Coral — WDF6832 — position and weather

sailwx.info

Track history (hours):
 
Tides and Currents Weather Stations Pressure Air Temp Water Temp Dewpoint Dewpoint Depression Visibility Wind Speed Wind Dir Waves Ship Positions

APL Coral

Owner: APL Maritime Ltd., Bethesda, MD. More information available from US FCC via Universal Licensing System and Coast Guard Vessel Documentation Center.

Last reported at 2016-Jun-16 18:33 UTC. Time now 2016-Jul-01 22:37 UTC.
Position N 01°54' E 102°21'.
Warning: this ship's position is 15 days out of date.

Length 275 m; draft 13 m.

Type: Cargo ship. MMSI: 367478280.

Date/timePositionNaut miles runAvg speedWind from/ knotsBaromVisibWave heightAir tempDewpointWater temp
2016-Jun-16 18:33N 01°54' E 102°21'1918.9
2016-Jun-16 17:33N 01°46' E 102°39'1918.8
2016-Jun-16 16:32N 01°39' E 102°56'4916.3
2016-Jun-16 13:32N 01°12' E 103°37'9 8.9
2016-Jun-16 12:33N 01°16' E 103°45'2 1.9
2016-Jun-16 11:33N 01°16' E 103°47'0 0.0
2016-Jun-16 10:31N 01°16' E 103°47'0 0.0
2016-Jun-16 09:25N 01°16' E 103°47'0 0.0
2016-Jun-16 08:31N 01°16' E 103°47'0 0.0
2016-Jun-16 07:31N 01°16' E 103°47'0 0.0
2016-Jun-16 06:31N 01°16' E 103°47'0 0.0
2016-Jun-16 05:31N 01°16' E 103°47'0 0.0
2016-Jun-16 04:31N 01°16' E 103°47'0 0.0
2016-Jun-16 03:28N 01°16' E 103°47'0 0.0
2016-Jun-16 02:31N 01°16' E 103°47'0 0.0
2016-Jun-16 01:25N 01°16' E 103°47'0 0.0
2016-Jun-16 00:31N 01°16' E 103°47'0 0.0
2016-Jun-15 23:31N 01°16' E 103°47'0 0.0
2016-Jun-15 22:25N 01°16' E 103°47'0 0.1
2016-Jun-15 21:33N 01°16' E 103°47'4 3.6
2016-Jun-15 20:33N 01°13' E 103°48'8 7.7
2016-Jun-15 19:33N 01°14' E 103°56'8 7.8
2016-Jun-15 18:33N 01°16' E 104°04'  
2016-Jun-12 14:18N 22°04' E 114°27'1316.1
2016-Jun-12 13:30N 22°08' E 114°13'1112.1
2016-Jun-12 12:33N 22°17' E 114°06'1111.1
2016-Jun-12 11:32N 22°22' E 113°55'7 7.0
2016-Jun-12 10:33N 22°28' E 113°52'0 0.0
2016-Jun-11 21:03N 22°28' E 113°52'0 0.0
2016-Jun-11 14:21N 22°28' E 113°52'12 5.3
2016-Jun-11 12:10N 22°21' E 114°02'6 9.2
2016-Jun-11 11:33N 22°17' E 114°06'10 9.2
2016-Jun-11 10:30N 22°10' E 114°13'11 8.1
2016-Jun-11 09:06N 22°08' E 114°02'7 1.2
2016-Jun-11 03:09N 22°05' E 113°54'0 0.0
2016-Jun-11 02:16N 22°05' E 113°54'19 6.7
2016-Jun-10 23:28N 22°08' E 114°14'1314.1
2016-Jun-10 22:34N 22°08' E 114°28'62617.2
2016-Jun-09 10:04N 29°39' E 122°31'916.7
2016-Jun-09 09:32N 29°43' E 122°22'1212.7
2016-Jun-09 08:33N 29°52' E 122°12'1212.3
2016-Jun-09 07:33N 29°57' E 121°59'8 7.1
2016-Jun-09 06:29N 29°57' E 121°50'0 0.0
2016-Jun-09 02:32N 29°57' E 121°50'0 0.0
2016-Jun-09 01:33N 29°57' E 121°50'0 0.0
2016-Jun-09 00:33N 29°57' E 121°50'0 0.0
2016-Jun-08 23:33N 29°57' E 121°50'0 0.0
2016-Jun-08 22:32N 29°57' E 121°50'0 0.0
2016-Jun-08 21:33N 29°57' E 121°50'0 0.0
2016-Jun-08 20:33N 29°57' E 121°50'0 0.0
2016-Jun-08 19:32N 29°57' E 121°50'1 1.1
2016-Jun-08 18:33N 29°57' E 121°52'1 0.2
2016-Jun-08 10:23N 29°57' E 121°53'1 1.6
2016-Jun-08 09:33N 29°57' E 121°54'8 8.3
2016-Jun-08 08:33N 29°56' E 122°04'10 9.8
2016-Jun-08 07:33N 29°50' E 122°13'1010.1
2016-Jun-08 06:33N 29°44' E 122°23'2 1.7
2016-Jun-08 05:27N 29°44' E 122°25'2 2.5
2016-Jun-08 04:33N 29°43' E 122°27'5814.2
2016-Jun-08 00:28N 30°35' E 122°57'7013.6
2016-Jun-07 19:20N 31°16' E 121°51'1012.7
2016-Jun-07 18:33N 31°20' E 121°40'6 5.7
2016-Jun-07 17:34N 31°23' E 121°34'0 0.0
2016-Jun-07 15:21N 31°23' E 121°34'0 0.0
2016-Jun-07 14:33N 31°23' E 121°34'0 0.0
2016-Jun-07 13:33N 31°23' E 121°34'0 0.0
2016-Jun-07 12:33N 31°23' E 121°34'0 0.0
2016-Jun-07 11:33N 31°23' E 121°34'0 0.0
2016-Jun-07 10:33N 31°23' E 121°34'0 0.0
2016-Jun-07 09:33N 31°23' E 121°34'0 0.0
2016-Jun-07 08:33N 31°23' E 121°34'0 0.0
2016-Jun-07 07:33N 31°23' E 121°34'0 0.2
2016-Jun-07 06:33N 31°23' E 121°34'4 3.9
2016-Jun-07 05:33N 31°21' E 121°39'10 9.7
2016-Jun-07 04:33N 31°17' E 121°49'1010.1
2016-Jun-07 03:32N 31°15' E 122°01'  
Track history (hours):
 
Tides and Currents Weather Stations Pressure Air Temp Water Temp Dewpoint Dewpoint Depression Visibility Wind Speed Wind Dir Waves Ship Positions

APL Coral

Owner: APL Maritime Ltd., Bethesda, MD. More information available from US FCC via Universal Licensing System and Coast Guard Vessel Documentation Center.

Last reported at 2016-Jun-16 18:33 UTC. Time now 2016-Jul-01 22:37 UTC.
Position N 01°54' E 102°21'.
Warning: this ship's position is 15 days out of date.

Length 275 m; draft 13 m.

Type: Cargo ship. MMSI: 367478280.

Date/timePositionNaut miles runAvg speedWind from/ knotsBaromVisibWave heightAir tempDewpointWater temp
2016-Jun-16 18:33N 01°54' E 102°21'1918.9
2016-Jun-16 17:33N 01°46' E 102°39'1918.8
2016-Jun-16 16:32N 01°39' E 102°56'4916.3
2016-Jun-16 13:32N 01°12' E 103°37'9 8.9
2016-Jun-16 12:33N 01°16' E 103°45'2 1.9
2016-Jun-16 11:33N 01°16' E 103°47'0 0.0
2016-Jun-16 10:31N 01°16' E 103°47'0 0.0
2016-Jun-16 09:25N 01°16' E 103°47'0 0.0
2016-Jun-16 08:31N 01°16' E 103°47'0 0.0
2016-Jun-16 07:31N 01°16' E 103°47'0 0.0
2016-Jun-16 06:31N 01°16' E 103°47'0 0.0
2016-Jun-16 05:31N 01°16' E 103°47'0 0.0
2016-Jun-16 04:31N 01°16' E 103°47'0 0.0
2016-Jun-16 03:28N 01°16' E 103°47'0 0.0
2016-Jun-16 02:31N 01°16' E 103°47'0 0.0
2016-Jun-16 01:25N 01°16' E 103°47'0 0.0
2016-Jun-16 00:31N 01°16' E 103°47'0 0.0
2016-Jun-15 23:31N 01°16' E 103°47'0 0.0
2016-Jun-15 22:25N 01°16' E 103°47'0 0.1
2016-Jun-15 21:33N 01°16' E 103°47'4 3.6
2016-Jun-15 20:33N 01°13' E 103°48'8 7.7
2016-Jun-15 19:33N 01°14' E 103°56'8 7.8
2016-Jun-15 18:33N 01°16' E 104°04'  
2016-Jun-12 14:18N 22°04' E 114°27'1316.1
2016-Jun-12 13:30N 22°08' E 114°13'1112.1
2016-Jun-12 12:33N 22°17' E 114°06'1111.1
2016-Jun-12 11:32N 22°22' E 113°55'7 7.0
2016-Jun-12 10:33N 22°28' E 113°52'0 0.0
2016-Jun-11 21:03N 22°28' E 113°52'0 0.0
2016-Jun-11 14:21N 22°28' E 113°52'12 5.3
2016-Jun-11 12:10N 22°21' E 114°02'6 9.2
2016-Jun-11 11:33N 22°17' E 114°06'10 9.2
2016-Jun-11 10:30N 22°10' E 114°13'11 8.1
2016-Jun-11 09:06N 22°08' E 114°02'7 1.2
2016-Jun-11 03:09N 22°05' E 113°54'0 0.0
2016-Jun-11 02:16N 22°05' E 113°54'19 6.7
2016-Jun-10 23:28N 22°08' E 114°14'1314.1
2016-Jun-10 22:34N 22°08' E 114°28'62617.2
2016-Jun-09 10:04N 29°39' E 122°31'916.7
2016-Jun-09 09:32N 29°43' E 122°22'1212.7
2016-Jun-09 08:33N 29°52' E 122°12'1212.3
2016-Jun-09 07:33N 29°57' E 121°59'8 7.1
2016-Jun-09 06:29N 29°57' E 121°50'0 0.0
2016-Jun-09 02:32N 29°57' E 121°50'0 0.0
2016-Jun-09 01:33N 29°57' E 121°50'0 0.0
2016-Jun-09 00:33N 29°57' E 121°50'0 0.0
2016-Jun-08 23:33N 29°57' E 121°50'0 0.0
2016-Jun-08 22:32N 29°57' E 121°50'0 0.0
2016-Jun-08 21:33N 29°57' E 121°50'0 0.0
2016-Jun-08 20:33N 29°57' E 121°50'0 0.0
2016-Jun-08 19:32N 29°57' E 121°50'1 1.1
2016-Jun-08 18:33N 29°57' E 121°52'1 0.2
2016-Jun-08 10:23N 29°57' E 121°53'1 1.6
2016-Jun-08 09:33N 29°57' E 121°54'8 8.3
2016-Jun-08 08:33N 29°56' E 122°04'10 9.8
2016-Jun-08 07:33N 29°50' E 122°13'1010.1
2016-Jun-08 06:33N 29°44' E 122°23'2 1.7
2016-Jun-08 05:27N 29°44' E 122°25'2 2.5
2016-Jun-08 04:33N 29°43' E 122°27'5814.2
2016-Jun-08 00:28N 30°35' E 122°57'7013.6
2016-Jun-07 19:20N 31°16' E 121°51'1012.7
2016-Jun-07 18:33N 31°20' E 121°40'6 5.7
2016-Jun-07 17:34N 31°23' E 121°34'0 0.0
2016-Jun-07 15:21N 31°23' E 121°34'0 0.0
2016-Jun-07 14:33N 31°23' E 121°34'0 0.0
2016-Jun-07 13:33N 31°23' E 121°34'0 0.0
2016-Jun-07 12:33N 31°23' E 121°34'0 0.0
2016-Jun-07 11:33N 31°23' E 121°34'0 0.0
2016-Jun-07 10:33N 31°23' E 121°34'0 0.0
2016-Jun-07 09:33N 31°23' E 121°34'0 0.0
2016-Jun-07 08:33N 31°23' E 121°34'0 0.0
2016-Jun-07 07:33N 31°23' E 121°34'0 0.2
2016-Jun-07 06:33N 31°23' E 121°34'4 3.9
2016-Jun-07 05:33N 31°21' E 121°39'10 9.7
2016-Jun-07 04:33N 31°17' E 121°49'1010.1
2016-Jun-07 03:32N 31°15' E 122°01'  

Dump ship's entire track history